Omiya, Japan
Current Conditions -  °F | °C
As of 5:58 PM on Friday 19 Dec 2014 (Local Time) from RJTY Reporting Station
Clear Clear  
Wind Chill: 41°   Ceiling: Unl
Heat Index: 41°   Visibility: 10mi
Dew Point: 23°   Wind: 3mph
Humidity: 50%   Direction: 130°SE
Pressure: 30.45"   Gusts: NA
Location:  35.9°N, 139.63°E
Report Text: RJTY 190858Z AUTO 13003KT 10SM CLR 05/M05 A3045 RMK AO2 SLP323 T00491048 52014
Loading
Personal Weather Stations






























Interactive Weather Map New forecast layout! Learn more

10-Day Weather Forecast

Advertisements
Track Severe Weather on mobile